Aérodrome :
LOGIN :

S'inscrire | Disclaimer

   EN    FR    IT 

 










Légende :    VFR   VFR Marginal   IFR   IFR Intensif   IFR Très Intensif
Visi : 
Plafond : 
>= 8 km
>= 3000ft
5 à 8 km
1000 à 3000 ft
1500m à 5 km
500 à 1000 ft
800 à 1500m
200 à 500 ft
< 800m
< 200 ft
Symboles :   Orages  Brouillard  Fortes neiges  Fortes précipitations  Vent > 20 kt
SIGMETs :   Divers  Orages  Givrage  Turbulence  Onde Orograph.  Cendres Volcan.







- Altitude de l'aérodrome : 312 ft
- Code IATA : SAW


LTFJ - Sabiha Gokcen

DERNIER METAR :
  • 211120Z 03017KT 9999 SCT026 12/05 Q1029 NOSIG RMK RWY24 03016KT

METARs EXPIRÉS :
  • 211050Z 04018KT 9999 SCT026 12/04 Q1029 NOSIG
  • 211020Z 03016KT 350V050 9999 BKN024 13/05 Q1029 NOSIG RMK RWY24 02016KT
  • 210950Z 03016KT 9999 BKN024 12/04 Q1029 NOSIG RMK RWY24 03014KT
  • 210920Z 02014KT 350V070 9999 BKN023 11/05 Q1029 NOSIG RMK RWY24 02012KT
  • 210850Z 04014KT 9999 BKN023 11/04 Q1030 NOSIG RMK RWY24 03014KT

TAF TAF LTFJ
Valide du 21 à 12h jusqu'au 22 à 12h UTC


211040Z 2112/2212 03015KT 9999 SCT030
TEMPO 2112/2116 03017G28KT
BECMG 2121/2124 03005KT CAVOK
PROB40
TEMPO 2201/2205 2400 BR SCT006
BECMG 2206/2209 03015KT
Pas de NOTAMs connus pour ce terrain.



MET'MAP, la Météo Aéronautique d'un coup d'oeil ! - Copyright ORBIFLY Décembre 2007 - Disclaimer

ORBIFLY MET'MAP TEAM :

Programmation & Développement : Alexandra Zaïnal
Conception & Développement : Baudouin d'Aumeries
Co-Programmation & Développement : Marc-Olivier Méhu
Soutien technique & logistique : Manuel Goepfert

Contact : metmap@orbifly.com




SOURCES & CREDITS :

   NOAA